createdAt,value
2022-11-09T00:03:46.689Z,4144.1
2022-11-09T00:09:23.386Z,4142.9
2022-11-09T00:14:58.426Z,4143.1
2022-11-09T00:20:33.544Z,4142.3
2022-11-09T00:26:09.311Z,4143.4
2022-11-09T00:31:44.061Z,4142.9
2022-11-09T00:37:20.235Z,4139.6
2022-11-09T00:42:59.509Z,4138.9
2022-11-09T00:48:56.227Z,4137.2
2022-11-09T00:54:28.676Z,4140.4
2022-11-09T01:00:04.191Z,4139.4
2022-11-09T01:05:39.097Z,4139.4
2022-11-09T01:11:14.996Z,4141.3
2022-11-09T01:16:50.126Z,4138.3
2022-11-09T01:22:25.077Z,4140.4
2022-11-09T01:27:59.986Z,4136.7
2022-11-09T01:33:34.745Z,4138.6
2022-11-09T01:39:10.024Z,4136.6
2022-11-09T01:44:45.493Z,4139.1
2022-11-09T01:50:20.659Z,4137.6
2022-11-09T01:55:55.635Z,4136.2
2022-11-09T02:01:31.299Z,4135.1
2022-11-09T02:07:07.773Z,4133.2
2022-11-09T02:12:42.980Z,4135.6
2022-11-09T02:18:17.878Z,4135.1
2022-11-09T02:23:52.964Z,4137.6
2022-11-09T02:29:27.951Z,4135.6
2022-11-09T02:35:10.573Z,4135.2
2022-11-09T02:40:45.638Z,4132.2
2022-11-09T02:46:42.364Z,4130.4
2022-11-09T02:52:16.081Z,4132.4
2022-11-09T02:57:51.233Z,4132.4
2022-11-09T03:03:25.836Z,4131.9
2022-11-09T03:09:00.679Z,4132.4
2022-11-09T03:14:35.825Z,4134.2
2022-11-09T03:20:10.685Z,4131.7
2022-11-09T03:25:46.134Z,4131.9
2022-11-09T03:31:22.045Z,4132.6
2022-11-09T03:36:58.022Z,4131.7
2022-11-09T03:42:33.166Z,4132.1
2022-11-09T03:48:30.004Z,4127.2
2022-11-09T03:54:04.230Z,4130.6
2022-11-09T03:59:39.137Z,4127.4
2022-11-09T04:05:14.251Z,4132.1
2022-11-09T04:10:49.424Z,4128.5
2022-11-09T04:16:25.308Z,4129.9
2022-11-09T04:22:00.361Z,4130.2
2022-11-09T04:27:35.599Z,4125
2022-11-09T04:33:11.913Z,4128.7
2022-11-09T04:38:47.121Z,4127.5
2022-11-09T04:44:21.972Z,4125.4
2022-11-09T04:49:57.894Z,4126.4
2022-11-09T04:55:33.201Z,4128.4
2022-11-09T05:01:08.461Z,4123.8
2022-11-09T05:06:45.166Z,4126
2022-11-09T05:12:21.424Z,4125.2
2022-11-09T05:17:57.621Z,4125.5
2022-11-09T05:23:32.970Z,4127
2022-11-09T05:29:08.423Z,4123.3
2022-11-09T05:34:43.205Z,4122
2022-11-09T05:40:18.947Z,4126
2022-11-09T05:45:54.108Z,4122.7
2022-11-09T05:51:29.896Z,4123.3
2022-11-09T05:57:05.485Z,4122.3
2022-11-09T06:02:40.497Z,4122.8
2022-11-09T06:08:17.412Z,4120.3
2022-11-09T06:13:52.593Z,4122.8
2022-11-09T06:19:29.244Z,4123.5
2022-11-09T06:25:04.300Z,4120.8
2022-11-09T06:30:39.696Z,4122.8
2022-11-09T06:36:15.734Z,4117.8
2022-11-09T06:41:50.648Z,4118.8
2022-11-09T06:47:47.545Z,4115.8
2022-11-09T06:53:27.183Z,4119.5
2022-11-09T06:59:01.934Z,4119.8
2022-11-09T07:04:37.702Z,4122.2
2022-11-09T07:10:13.061Z,4117.3
2022-11-09T07:15:49.228Z,4117.1
2022-11-09T07:21:24.539Z,4117.7
2022-11-09T07:26:59.419Z,4125
2022-11-09T07:33:11.498Z,4123.5
2022-11-09T07:38:47.278Z,4119
2022-11-09T07:44:22.936Z,4120.3
2022-11-09T07:49:58.511Z,4124.9
2022-11-09T07:55:34.714Z,4128.2
2022-11-09T08:01:10.872Z,4122.8
2022-11-09T08:06:46.483Z,4120.3
2022-11-09T08:12:21.696Z,4129.7
2022-11-09T08:17:57.755Z,4131.7
2022-11-09T08:23:32.482Z,4133.4
2022-11-09T08:29:07.665Z,4131.7
2022-11-09T08:34:43.679Z,4144.6
2022-11-09T08:40:18.821Z,4154.3
2022-11-09T08:45:54.724Z,4158.5
2022-11-09T08:51:30.228Z,4189.3
2022-11-09T08:57:06.784Z,4182
2022-11-09T09:02:42.802Z,4170.9
2022-11-09T09:08:20.273Z,4172.1
2022-11-09T09:13:55.547Z,4205.8
2022-11-09T09:19:30.525Z,4196.9
2022-11-09T09:25:06.137Z,4185.8
2022-11-09T09:30:40.936Z,4198.1
2022-11-09T09:36:16.095Z,4196.7
2022-11-09T09:41:51.027Z,4179.1
2022-11-09T09:47:26.280Z,4172.3
2022-11-09T09:53:26.043Z,4159.5
2022-11-09T09:59:02.128Z,4158.5
2022-11-09T10:04:39.049Z,4156.5
2022-11-09T10:10:14.331Z,4157.2
2022-11-09T10:15:49.488Z,4157
2022-11-09T10:21:24.331Z,4160
2022-11-09T10:27:00.736Z,4160
2022-11-09T10:32:36.611Z,4156.7
2022-11-09T10:38:11.670Z,4160.5
2022-11-09T10:43:48.150Z,4161.5
2022-11-09T10:49:23.475Z,4169.2
2022-11-09T10:54:58.417Z,4179.5
2022-11-09T11:00:33.596Z,4172.9
2022-11-09T11:06:09.587Z,4174.8
2022-11-09T11:11:44.652Z,4188.3
2022-11-09T11:17:19.687Z,4182.5
2022-11-09T11:22:55.981Z,4178.6
2022-11-09T11:28:31.014Z,4187.7
2022-11-09T11:34:05.986Z,4202.7
2022-11-09T11:39:41.360Z,4206.1
2022-11-09T11:45:43.315Z,4195.4
2022-11-09T11:51:18.727Z,4193
2022-11-09T11:56:53.871Z,4203.7
2022-11-09T12:02:29.990Z,4215
2022-11-09T12:08:05.763Z,4189.3
2022-11-09T12:13:49.726Z,4182.5
2022-11-09T12:19:37.016Z,4174.3
2022-11-09T12:25:12.501Z,4176.3
2022-11-09T12:30:47.558Z,4179.5
2022-11-09T12:36:23.767Z,4180.8
2022-11-09T12:41:58.994Z,4183.6
2022-11-09T12:47:33.880Z,4181
2022-11-09T12:53:09.558Z,4180.8
2022-11-09T12:58:44.518Z,4176.9
2022-11-09T13:04:19.756Z,4178.5
2022-11-09T13:09:55.920Z,4182.3
2022-11-09T13:15:30.723Z,4179.8
2022-11-09T13:21:06.615Z,4188
2022-11-09T13:26:41.651Z,4194
2022-11-09T13:32:17.865Z,4187.5
2022-11-09T13:37:52.748Z,4191.5
2022-11-09T13:43:30.083Z,4187.8
2022-11-09T13:49:06.724Z,4189.7
2022-11-09T13:54:41.899Z,4185.3
2022-11-09T14:00:17.400Z,4189
2022-11-09T14:05:55.189Z,4192
2022-11-09T14:11:33.367Z,4184.8
2022-11-09T14:17:09.224Z,4184.8
2022-11-09T14:22:51.701Z,4181.6
2022-11-09T14:28:27.260Z,4186.8
2022-11-09T14:34:07.965Z,4184.1
2022-11-09T14:39:47.693Z,4186.8
2022-11-09T14:45:23.304Z,4188.5
2022-11-09T14:50:59.147Z,4186.7
2022-11-09T14:56:40.643Z,4183.3
2022-11-09T15:02:23.701Z,4183.6
2022-11-09T15:08:14.443Z,4182.8
2022-11-09T15:14:09.408Z,4192
2022-11-09T15:19:45.324Z,4190.2
2022-11-09T15:25:24.637Z,4186
2022-11-09T15:31:12.123Z,4181.8
2022-11-09T15:36:59.636Z,4182.6
2022-11-09T15:42:55.403Z,4175.4
2022-11-09T15:48:46.834Z,4174.6
2022-11-09T15:54:22.143Z,4174.8
2022-11-09T15:59:57.052Z,4174.6
2022-11-09T16:05:32.261Z,4175.6
2022-11-09T16:11:07.337Z,4173.6
2022-11-09T16:16:42.263Z,4174.4
2022-11-09T16:22:17.087Z,4172.9
2022-11-09T16:27:53.520Z,4172.9
2022-11-09T16:33:31.020Z,4172.4
2022-11-09T16:39:06.996Z,4171.8
2022-11-09T16:44:41.750Z,4169.7
2022-11-09T16:50:16.797Z,4171.8
2022-11-09T16:55:51.732Z,4169.6
2022-11-09T17:01:27.817Z,4170.6
2022-11-09T17:07:03.539Z,4169.2
2022-11-09T17:12:39.016Z,4172.6
2022-11-09T17:18:14.813Z,4169.9
2022-11-09T17:23:49.772Z,4171.9
2022-11-09T17:29:25.011Z,4168.1
2022-11-09T17:35:01.988Z,4171.8
2022-11-09T17:40:36.950Z,4169.4
2022-11-09T17:46:11.776Z,4166.4
2022-11-09T17:51:46.483Z,4166.2
2022-11-09T17:57:22.726Z,4170.7
2022-11-09T18:02:57.956Z,4165.2
2022-11-09T18:08:32.863Z,4165.7
2022-11-09T18:14:07.805Z,4167.6
2022-11-09T18:19:43.365Z,4164.4
2022-11-09T18:25:22.861Z,4166.6
2022-11-09T18:30:57.715Z,4169.1
2022-11-09T18:36:32.672Z,4161.5
2022-11-09T18:42:10.682Z,4162.7
2022-11-09T18:48:07.227Z,4161.9
2022-11-09T18:53:39.784Z,4163.9
2022-11-09T18:59:14.594Z,4165.6
2022-11-09T19:04:49.307Z,4162.5
2022-11-09T19:10:25.271Z,4169.2
2022-11-09T19:16:01.051Z,4163.2
2022-11-09T19:21:37.218Z,4161.4
2022-11-09T19:27:12.352Z,4161.2
2022-11-09T19:32:47.202Z,4162.2
2022-11-09T19:38:24.683Z,4159.9
2022-11-09T19:43:59.980Z,4160.5
2022-11-09T19:49:34.725Z,4162.9
2022-11-09T19:55:10.584Z,4159.4
2022-11-09T20:00:46.603Z,4160.5
2022-11-09T20:06:21.766Z,4160.4
2022-11-09T20:11:57.180Z,4160
2022-11-09T20:17:33.823Z,4157.2
2022-11-09T20:23:08.852Z,4160.2
2022-11-09T20:28:43.496Z,4159.9
2022-11-09T20:34:18.822Z,4158.5
2022-11-09T20:39:55.089Z,4162.7
2022-11-09T20:45:31.211Z,4155.5
2022-11-09T20:51:06.182Z,4156.5
2022-11-09T20:56:41.510Z,4158.4
2022-11-09T21:02:18.308Z,4158.2
2022-11-09T21:07:53.478Z,4157.9
2022-11-09T21:13:29.651Z,4157.4
2022-11-09T21:19:06.266Z,4153.8
2022-11-09T21:24:41.323Z,4150.6
2022-11-09T21:30:16.837Z,4152.7
2022-11-09T21:35:52.789Z,4153.5
2022-11-09T21:41:34.199Z,4153.3
2022-11-09T21:47:34.546Z,4149.5
2022-11-09T21:53:07.195Z,4153.2
2022-11-09T21:58:42.967Z,4152.3
2022-11-09T22:04:18.155Z,4152.5
2022-11-09T22:10:12.654Z,4151.3
2022-11-09T22:15:47.563Z,4151.7
2022-11-09T22:21:22.426Z,4151.2
2022-11-09T22:26:57.436Z,4151.7
2022-11-09T22:32:32.653Z,4152.5
2022-11-09T22:38:07.693Z,4149.8
2022-11-09T22:43:42.541Z,4151.2
2022-11-09T22:49:39.347Z,4148
2022-11-09T22:55:12.069Z,4149
2022-11-09T23:00:47.002Z,4147.3
2022-11-09T23:06:22.063Z,4148.6
2022-11-09T23:11:57.253Z,4150.1
2022-11-09T23:17:31.978Z,4147.8
2022-11-09T23:23:07.851Z,4149.1
2022-11-09T23:28:51.477Z,4147.5
2022-11-09T23:34:26.241Z,4150
2022-11-09T23:40:01.137Z,4148.6
2022-11-09T23:45:36.772Z,4146.6
2022-11-09T23:51:11.722Z,4147
2022-11-09T23:56:46.695Z,4146
